createdAt,value
2019-02-26T00:00:35.827Z,23.98
2019-02-26T00:05:42.021Z,22.02
2019-02-26T00:10:50.179Z,23.02
2019-02-26T00:15:56.168Z,22.55
2019-02-26T00:21:02.849Z,21.52
2019-02-26T00:26:10.633Z,20.88
2019-02-26T00:31:19.211Z,19.48
2019-02-26T00:36:27.186Z,19.57
2019-02-26T00:41:35.700Z,19.52
2019-02-26T00:46:41.423Z,19.95
2019-02-26T00:51:48.300Z,17.20
2019-02-26T00:56:57.131Z,18.57
2019-02-26T01:02:03.121Z,19.85
2019-02-26T01:07:09.230Z,19.05
2019-02-26T01:12:16.626Z,26.33
2019-02-26T01:17:23.388Z,22.10
2019-02-26T01:22:31.048Z,18.98
2019-02-26T01:27:37.443Z,22.77
2019-02-26T01:32:43.620Z,28.80
2019-02-26T01:37:51.393Z,28.80
2019-02-26T01:43:00.214Z,36.55
2019-02-26T01:48:06.323Z,35.15
2019-02-26T01:53:14.512Z,32.45
2019-02-26T01:58:21.585Z,23.83
2019-02-26T02:03:28.048Z,23.87
2019-02-26T02:08:39.342Z,17.40
2019-02-26T02:13:43.840Z,18.60
2019-02-26T02:18:51.377Z,18.05
2019-02-26T02:23:57.942Z,17.35
2019-02-26T02:29:04.081Z,15.90
2019-02-26T02:34:10.294Z,15.55
2019-02-26T02:39:18.186Z,15.50
2019-02-26T02:44:25.543Z,15.38
2019-02-26T02:49:32.885Z,16.70
2019-02-26T02:54:41.210Z,15.25
2019-02-26T02:59:47.700Z,15.45
2019-02-26T03:04:53.769Z,15.53
2019-02-26T03:10:05.558Z,20.40
2019-02-26T03:15:11.114Z,16.00
2019-02-26T03:20:17.618Z,15.80
2019-02-26T03:25:26.309Z,17.75
2019-02-26T03:30:37.878Z,16.67
2019-02-26T03:35:39.270Z,16.00
2019-02-26T03:40:45.503Z,16.12
2019-02-26T03:45:51.730Z,16.27
2019-02-26T03:51:00.724Z,15.23
2019-02-26T03:56:08.208Z,17.23
2019-02-26T04:01:16.640Z,17.60
2019-02-26T04:06:22.576Z,18.82
2019-02-26T04:11:28.808Z,19.82
2019-02-26T04:16:35.288Z,23.12
2019-02-26T04:22:20.402Z,21.55
2019-02-26T04:33:21.612Z,18.85
2019-02-26T04:39:22.083Z,19.35
2019-02-26T04:45:16.883Z,20.65
2019-02-26T04:50:26.157Z,25.32
2019-02-26T04:55:32.919Z,23.02
2019-02-26T05:00:38.829Z,21.25
2019-02-26T05:05:44.936Z,22.48
2019-02-26T05:10:52.441Z,23.87
2019-02-26T05:15:59.043Z,23.18
2019-02-26T05:21:07.491Z,25.90
2019-02-26T05:26:15.325Z,23.12
2019-02-26T05:31:20.924Z,27.85
2019-02-26T05:36:28.331Z,22.40
2019-02-26T05:41:34.817Z,21.45
2019-02-26T05:46:41.026Z,21.65
2019-02-26T05:51:47.171Z,24.20
2019-02-26T05:56:53.544Z,23.30
2019-02-26T06:01:59.867Z,26.48
2019-02-26T06:07:06.322Z,26.07
2019-02-26T06:12:12.318Z,27.90
2019-02-26T06:17:19.834Z,29.55
2019-02-26T06:22:27.165Z,26.17
2019-02-26T06:27:34.066Z,27.52
2019-02-26T06:32:42.619Z,31.27
2019-02-26T06:37:48.307Z,30.62
2019-02-26T06:42:54.493Z,41.18
2019-02-26T06:48:00.871Z,32.93
2019-02-26T06:53:09.120Z,31.48
2019-02-26T06:58:25.165Z,144.93
2019-02-26T07:03:31.352Z,54.08
2019-02-26T07:08:37.485Z,55.40
2019-02-26T07:13:44.756Z,46.40
2019-02-26T07:18:51.452Z,45.33
2019-02-26T07:23:58.834Z,36.50
2019-02-26T07:29:07.596Z,37.58
2019-02-26T07:34:13.257Z,42.90
2019-02-26T07:39:20.919Z,40.38
2019-02-26T07:44:28.410Z,43.02
2019-02-26T07:49:34.544Z,34.85
2019-02-26T07:54:42.778Z,32.23
2019-02-26T07:59:50.184Z,30.43
2019-02-26T08:04:56.349Z,29.20
2019-02-26T08:10:02.830Z,27.13
2019-02-26T08:15:12.737Z,26.70
2019-02-26T08:20:19.389Z,26.97
2019-02-26T08:25:25.464Z,26.00
2019-02-26T08:30:31.797Z,24.02
2019-02-26T08:35:38.013Z,22.07
2019-02-26T08:40:44.066Z,23.92
2019-02-26T08:45:50.385Z,22.30
2019-02-26T08:51:00.916Z,20.50
2019-02-26T08:56:04.654Z,21.30
2019-02-26T09:01:10.945Z,22.48
2019-02-26T09:06:17.158Z,19.62
2019-02-26T09:11:23.499Z,20.15
2019-02-26T09:16:30.344Z,19.87
2019-02-26T09:21:39.491Z,19.57
2019-02-26T09:26:45.105Z,18.02
2019-02-26T09:31:51.390Z,18.12
2019-02-26T09:36:58.219Z,16.52
2019-02-26T09:42:06.485Z,16.40
2019-02-26T09:47:12.659Z,14.85
2019-02-26T09:52:20.638Z,15.43
2019-02-26T09:57:28.229Z,14.80
2019-02-26T10:02:34.610Z,13.43
2019-02-26T10:07:41.093Z,13.70
2019-02-26T10:12:46.965Z,13.35
2019-02-26T10:17:52.829Z,12.28
2019-02-26T10:23:01.211Z,12.75
2019-02-26T10:28:09.606Z,11.68
2019-02-26T10:33:17.384Z,11.95
2019-02-26T10:38:24.262Z,11.12
2019-02-26T10:43:30.083Z,11.85
2019-02-26T10:48:35.985Z,11.50
2019-02-26T10:53:42.310Z,11.08
2019-02-26T10:58:48.560Z,10.58
2019-02-26T11:03:55.212Z,10.20
2019-02-26T11:09:01.849Z,9.90
2019-02-26T11:14:10.434Z,9.60
2019-02-26T11:19:15.515Z,9.95
2019-02-26T11:24:23.485Z,10.10
2019-02-26T11:29:30.457Z,8.78
2019-02-26T11:34:38.280Z,8.65
2019-02-26T11:39:44.266Z,9.48
2019-02-26T11:44:50.098Z,9.03
2019-02-26T11:49:56.038Z,8.80
2019-02-26T11:55:05.798Z,8.95
2019-02-26T12:00:17.749Z,9.10
2019-02-26T12:05:24.218Z,8.83
2019-02-26T12:10:30.498Z,8.63
2019-02-26T12:15:39.907Z,8.88
2019-02-26T12:20:48.028Z,8.73
2019-02-26T12:25:53.605Z,9.33
2019-02-26T12:31:01.263Z,9.15
2019-02-26T12:36:08.019Z,8.40
2019-02-26T12:41:15.945Z,9.38
2019-02-26T12:46:24.436Z,9.15
2019-02-26T12:51:31.749Z,9.43
2019-02-26T12:56:37.488Z,8.58
2019-02-26T13:01:46.210Z,8.33
2019-02-26T13:06:51.974Z,8.80
2019-02-26T13:12:02.506Z,8.35
2019-02-26T13:17:05.520Z,8.43
2019-02-26T13:22:16.894Z,8.78
2019-02-26T13:27:18.935Z,8.75
2019-02-26T13:32:25.973Z,8.60
2019-02-26T13:37:35.544Z,8.80
2019-02-26T13:42:39.915Z,8.38
2019-02-26T13:47:46.055Z,8.00
2019-02-26T13:52:51.916Z,7.90
2019-02-26T13:57:57.775Z,8.20
2019-02-26T14:03:04.245Z,8.08
2019-02-26T14:08:10.386Z,7.58
2019-02-26T14:13:16.433Z,7.80
2019-02-26T14:18:22.318Z,8.10
2019-02-26T14:23:28.285Z,7.05
2019-02-26T14:28:34.153Z,7.55
2019-02-26T14:33:40.095Z,8.03
2019-02-26T14:38:46.051Z,6.95
2019-02-26T14:43:52.030Z,8.23
2019-02-26T14:48:57.895Z,8.50
2019-02-26T14:54:03.981Z,7.10
2019-02-26T14:59:10.291Z,7.80
2019-02-26T15:04:16.694Z,8.33
2019-02-26T15:09:22.633Z,8.30
2019-02-26T15:14:29.003Z,8.43
2019-02-26T15:19:35.093Z,8.58
2019-02-26T15:24:41.063Z,9.03
2019-02-26T15:29:47.296Z,7.90
2019-02-26T15:34:53.529Z,8.00
2019-02-26T15:39:59.717Z,8.10
2019-02-26T15:45:07.368Z,8.03
2019-02-26T15:50:14.306Z,7.70
2019-02-26T15:55:20.680Z,8.03
2019-02-26T16:00:27.118Z,8.70
2019-02-26T16:05:33.380Z,8.20
2019-02-26T16:10:39.472Z,7.87
2019-02-26T16:15:45.697Z,9.15
2019-02-26T16:20:52.424Z,8.20
2019-02-26T16:25:58.574Z,8.35
2019-02-26T16:31:04.787Z,8.65
2019-02-26T16:36:12.965Z,9.15
2019-02-26T16:41:18.985Z,9.55
2019-02-26T16:46:25.126Z,8.50
2019-02-26T16:51:31.294Z,9.25
2019-02-26T16:56:37.524Z,8.60
2019-02-26T17:01:44.138Z,8.38
2019-02-26T17:06:51.532Z,9.25
2019-02-26T17:11:57.539Z,8.75
2019-02-26T17:17:03.976Z,8.88
2019-02-26T17:22:10.817Z,11.22
2019-02-26T17:27:16.800Z,10.78
2019-02-26T17:32:23.006Z,8.28
2019-02-26T17:37:29.123Z,9.95
2019-02-26T17:42:35.267Z,10.85
2019-02-26T17:47:41.443Z,10.70
2019-02-26T17:52:47.978Z,10.50
2019-02-26T17:57:54.183Z,10.05
2019-02-26T18:03:00.581Z,15.65
2019-02-26T18:08:06.808Z,10.30
2019-02-26T18:13:12.955Z,11.88
2019-02-26T18:18:19.324Z,17.15
2019-02-26T18:23:25.792Z,23.52
2019-02-26T18:28:31.918Z,18.73
2019-02-26T18:33:38.153Z,24.18
2019-02-26T18:38:48.769Z,53.55
2019-02-26T18:43:54.230Z,18.85
2019-02-26T18:49:00.411Z,22.35
2019-02-26T18:54:06.629Z,37.38
2019-02-26T18:59:12.921Z,20.00
2019-02-26T19:04:19.167Z,18.77
2019-02-26T19:09:25.420Z,18.30
2019-02-26T19:14:31.471Z,32.50
2019-02-26T19:19:39.745Z,26.20
2019-02-26T19:24:45.733Z,29.25
2019-02-26T19:29:51.835Z,25.68
2019-02-26T19:34:58.721Z,23.52
2019-02-26T19:40:06.769Z,27.70
2019-02-26T19:45:13.306Z,24.65
2019-02-26T19:50:20.200Z,23.62
2019-02-26T19:55:28.451Z,24.63
2019-02-26T20:00:34.727Z,17.90
2019-02-26T20:05:41.325Z,18.45
2019-02-26T20:10:48.724Z,17.98
2019-02-26T20:15:55.433Z,14.35
2019-02-26T20:21:01.669Z,12.98
2019-02-26T20:26:07.900Z,13.95
2019-02-26T20:31:13.944Z,14.18
2019-02-26T20:36:19.817Z,14.05
2019-02-26T20:41:26.008Z,15.48
2019-02-26T20:46:32.240Z,14.35
2019-02-26T20:51:38.098Z,15.30
2019-02-26T20:56:44.840Z,16.82
2019-02-26T21:01:50.812Z,15.53
2019-02-26T21:06:56.839Z,18.30
2019-02-26T21:12:03.007Z,17.48
2019-02-26T21:17:09.031Z,17.42
2019-02-26T21:22:15.196Z,19.87
2019-02-26T21:27:23.726Z,20.62
2019-02-26T21:32:29.592Z,19.98
2019-02-26T21:37:35.850Z,19.30
2019-02-26T21:42:42.229Z,20.45
2019-02-26T21:47:48.426Z,23.67
2019-02-26T21:53:01.960Z,22.95
2019-02-26T21:58:02.909Z,23.45
2019-02-26T22:03:09.085Z,14.13
2019-02-26T22:08:15.497Z,14.43
2019-02-26T22:13:21.730Z,15.85
2019-02-26T22:18:31.233Z,17.85
2019-02-26T22:23:35.833Z,22.35
2019-02-26T22:28:42.103Z,21.50
2019-02-26T22:33:48.883Z,20.80
2019-02-26T22:38:54.899Z,19.37
2019-02-26T22:44:01.186Z,20.05
2019-02-26T22:49:07.341Z,19.62
2019-02-26T22:54:13.438Z,23.07
2019-02-26T22:59:20.365Z,23.62
2019-02-26T23:04:26.592Z,24.85
2019-02-26T23:09:32.959Z,28.77
2019-02-26T23:14:39.423Z,21.65
2019-02-26T23:19:45.636Z,23.02
2019-02-26T23:24:52.235Z,22.98
2019-02-26T23:29:58.472Z,25.35
2019-02-26T23:35:08.694Z,21.20
2019-02-26T23:40:14.826Z,22.58
2019-02-26T23:45:23.938Z,23.73
2019-02-26T23:50:28.952Z,22.22
2019-02-26T23:55:34.980Z,22.60
